createdAt,value
2022-12-03T00:01:34.310Z,101404.92
2022-12-03T00:04:21.001Z,101402.21
2022-12-03T00:07:07.896Z,101401.64
2022-12-03T00:09:54.753Z,101399.16
2022-12-03T00:12:41.250Z,101395.78
2022-12-03T00:15:28.207Z,101399.55
2022-12-03T00:18:14.850Z,101398.23
2022-12-03T00:21:01.475Z,101397.44
2022-12-03T00:23:48.029Z,101398.20
2022-12-03T00:26:35.075Z,101398.80
2022-12-03T00:29:21.480Z,101404.34
2022-12-03T00:32:08.197Z,101396.80
2022-12-03T00:34:54.850Z,101394.75
2022-12-03T00:37:41.502Z,101394.85
2022-12-03T00:40:28.105Z,101394.65
2022-12-03T00:43:14.815Z,101391.98
2022-12-03T00:46:01.522Z,101388.80
2022-12-03T00:48:48.357Z,101389.57
2022-12-03T00:51:36.022Z,101385.27
2022-12-03T00:54:28.346Z,101386.25
2022-12-03T00:57:17.956Z,101383.96
2022-12-03T01:00:07.966Z,101383.71
2022-12-03T01:02:54.435Z,101382.30
2022-12-03T01:05:40.766Z,101385.96
2022-12-03T01:08:27.372Z,101378.96
2022-12-03T01:11:32.611Z,101382.73
2022-12-03T01:14:19.748Z,101380.75
2022-12-03T01:17:07.054Z,101381.23
2022-12-03T01:19:53.763Z,101381.23
2022-12-03T01:22:40.573Z,101384.39
2022-12-03T01:25:27.588Z,101387.85
2022-12-03T01:28:14.197Z,101385.63
2022-12-03T01:31:19.386Z,101383.10
2022-12-03T01:34:06.462Z,101386.59
2022-12-03T01:36:53.471Z,101382.02
2022-12-03T01:39:40.483Z,101375.73
2022-12-03T01:42:29.318Z,101378.48
2022-12-03T01:45:22.084Z,101380.31
2022-12-03T01:48:10.029Z,101379.56
2022-12-03T01:50:56.737Z,101381.22
2022-12-03T01:53:43.649Z,101379.17
2022-12-03T01:56:30.401Z,101373.16
2022-12-03T01:59:21.571Z,101373.97
2022-12-03T02:02:14.431Z,101370.25
2022-12-03T02:05:01.337Z,101370.48
2022-12-03T02:07:48.327Z,101368.34
2022-12-03T02:10:35.676Z,101368.42
2022-12-03T02:13:21.973Z,101366.77
2022-12-03T02:16:08.847Z,101366.02
2022-12-03T02:18:55.111Z,101367.37
2022-12-03T02:21:47.933Z,101364.84
2022-12-03T02:25:03.812Z,101365.05
2022-12-03T02:27:50.738Z,101364.11
2022-12-03T02:30:37.323Z,101366.13
2022-12-03T02:33:23.790Z,101364.27
2022-12-03T02:36:10.453Z,101364.59
2022-12-03T02:38:57.274Z,101367.18
2022-12-03T02:42:02.714Z,101368.71
2022-12-03T02:44:49.518Z,101365.98
2022-12-03T02:47:40.020Z,101368.75
2022-12-03T02:50:29.157Z,101362.89
2022-12-03T02:53:19.645Z,101361.95
2022-12-03T02:56:06.611Z,101361.98
2022-12-03T02:58:54.678Z,101358.27
2022-12-03T03:01:41.322Z,101356.48
2022-12-03T03:04:27.746Z,101359.48
2022-12-03T03:07:14.453Z,101361.11
2022-12-03T03:10:00.911Z,101355.20
2022-12-03T03:12:47.474Z,101356.75
2022-12-03T03:15:35.832Z,101356.77
2022-12-03T03:18:22.615Z,101353.82
2022-12-03T03:21:09.131Z,101353.88
2022-12-03T03:23:56.029Z,101349.81
2022-12-03T03:26:42.946Z,101351.08
2022-12-03T03:29:30.775Z,101350.70
2022-12-03T03:32:17.371Z,101344.49
2022-12-03T03:35:05.356Z,101340.77
2022-12-03T03:37:53.668Z,101335.87
2022-12-03T03:40:40.382Z,101331.38
2022-12-03T03:43:26.985Z,101333.86
2022-12-03T03:46:13.697Z,101334.76
2022-12-03T03:49:01.295Z,101334.56
2022-12-03T03:51:48.338Z,101334.17
2022-12-03T03:54:35.146Z,101333.61
2022-12-03T03:57:21.752Z,101327.80
2022-12-03T04:00:08.972Z,101324.23
2022-12-03T04:02:55.680Z,101321.38
2022-12-03T04:05:42.298Z,101320.18
2022-12-03T04:08:29.175Z,101317.84
2022-12-03T04:11:34.505Z,101318.66
2022-12-03T04:14:21.457Z,101320.56
2022-12-03T04:17:07.952Z,101321.10
2022-12-03T04:19:54.663Z,101317.61
2022-12-03T04:22:41.171Z,101318.17
2022-12-03T04:25:46.313Z,101318.83
2022-12-03T04:28:51.350Z,101320.30
2022-12-03T04:31:57.326Z,101314.20
2022-12-03T04:35:03.108Z,101313.74
2022-12-03T04:37:49.815Z,101309.27
2022-12-03T04:40:56.242Z,101309.69
2022-12-03T04:44:02.489Z,101314.47
2022-12-03T04:46:48.919Z,101316.55
2022-12-03T04:49:37.081Z,101317.82
2022-12-03T04:52:23.453Z,101319.91
2022-12-03T04:55:10.161Z,101319.50
2022-12-03T04:57:57.075Z,101325.73
2022-12-03T05:00:43.683Z,101322.89
2022-12-03T05:03:30.389Z,101315.56
2022-12-03T05:06:17.194Z,101321.91
2022-12-03T05:09:03.910Z,101322.04
2022-12-03T05:11:50.713Z,101318.73
2022-12-03T05:14:37.451Z,101315.70
2022-12-03T05:17:24.338Z,101315.16
2022-12-03T05:20:31.013Z,101315.61
2022-12-03T05:23:17.322Z,101312.61
2022-12-03T05:26:04.022Z,101311.23
2022-12-03T05:28:50.420Z,101312.91
2022-12-03T05:31:36.824Z,101314.89
2022-12-03T05:34:23.429Z,101313.73
2022-12-03T05:37:10.032Z,101316.27
2022-12-03T05:39:56.745Z,101310.45
2022-12-03T05:42:57.035Z,101309.41
2022-12-03T05:45:44.705Z,101308.77
2022-12-03T05:48:31.202Z,101310.93
2022-12-03T05:51:18.118Z,101312.58
2022-12-03T05:54:04.828Z,101310.34
2022-12-03T05:56:51.119Z,101306.93
2022-12-03T05:59:37.829Z,101308.21
2022-12-03T06:02:24.553Z,101309.73
2022-12-03T06:05:12.169Z,101308.80
2022-12-03T06:07:58.947Z,101308.73
2022-12-03T06:10:45.821Z,101305.75
2022-12-03T06:13:32.755Z,101312.88
2022-12-03T06:16:19.612Z,101315.35
2022-12-03T06:19:06.120Z,101313.77
2022-12-03T06:21:53.012Z,101312.98
2022-12-03T06:24:39.867Z,101315.89
2022-12-03T06:27:26.594Z,101315.77
2022-12-03T06:30:14.947Z,101311.50
2022-12-03T06:33:02.122Z,101312.33
2022-12-03T06:35:49.036Z,101308.50
2022-12-03T06:38:35.548Z,101308.63
2022-12-03T06:41:24.594Z,101308.70
2022-12-03T06:44:11.553Z,101308.67
2022-12-03T06:46:58.047Z,101308.29
2022-12-03T06:49:44.742Z,101306.16
2022-12-03T06:52:31.713Z,101308.90
2022-12-03T06:55:20.478Z,101310.63
2022-12-03T06:58:07.396Z,101309.48
2022-12-03T07:00:54.229Z,101306.65
2022-12-03T07:03:40.993Z,101302.92
2022-12-03T07:06:27.593Z,101304.08
2022-12-03T07:09:17.046Z,101304.27
2022-12-03T07:12:06.274Z,101302.43
2022-12-03T07:14:53.368Z,101308.34
2022-12-03T07:17:39.978Z,101309.44
2022-12-03T07:20:26.993Z,101304.41
2022-12-03T07:23:13.783Z,101302.41
2022-12-03T07:26:00.634Z,101292.85
2022-12-03T07:28:48.368Z,101293.40
2022-12-03T07:31:35.214Z,101295.75
2022-12-03T07:34:21.782Z,101299.17
2022-12-03T07:37:08.492Z,101296.16
2022-12-03T07:39:55.615Z,101297.87
2022-12-03T07:42:42.523Z,101296.33
2022-12-03T07:45:29.436Z,101294.27
2022-12-03T07:48:16.454Z,101296.67
2022-12-03T07:51:03.414Z,101291.01
2022-12-03T07:53:50.075Z,101296.20
2022-12-03T07:56:36.865Z,101290.89
2022-12-03T07:59:23.745Z,101290.23
2022-12-03T08:02:10.173Z,101295.05
2022-12-03T08:04:57.102Z,101294.14
2022-12-03T08:07:43.653Z,101292.19
2022-12-03T08:10:30.599Z,101283.98
2022-12-03T08:13:18.076Z,101288.60
2022-12-03T08:16:12.592Z,101286.64
2022-12-03T08:18:59.152Z,101287.48
2022-12-03T08:21:45.889Z,101284.70
2022-12-03T08:24:32.642Z,101284.98
2022-12-03T08:27:19.615Z,101281.85
2022-12-03T08:30:15.031Z,101279.05
2022-12-03T08:33:02.012Z,101275.34
2022-12-03T08:35:50.237Z,101267.09
2022-12-03T08:38:36.866Z,101267.45
2022-12-03T08:41:42.311Z,101264.83
2022-12-03T08:44:32.725Z,101263.48
2022-12-03T08:47:20.541Z,101262.95
2022-12-03T08:50:25.195Z,101263.48
2022-12-03T08:53:30.510Z,101259.17
2022-12-03T08:56:24.594Z,101258.53
2022-12-03T08:59:29.400Z,101259.77
2022-12-03T09:02:30.874Z,101266.44
2022-12-03T09:05:27.419Z,101265.59
2022-12-03T09:08:14.016Z,101268.55
2022-12-03T09:11:01.448Z,101266.33
2022-12-03T09:13:49.605Z,101271.45
2022-12-03T09:16:36.148Z,101271.05
2022-12-03T09:19:26.507Z,101267.05
2022-12-03T09:22:13.502Z,101263.40
2022-12-03T09:25:00.300Z,101261.65
2022-12-03T09:27:47.124Z,101258.83
2022-12-03T09:30:34.136Z,101258.61
2022-12-03T09:33:21.061Z,101257.09
2022-12-03T09:36:07.576Z,101261.88
2022-12-03T09:38:57.864Z,101262.21
2022-12-03T09:41:44.557Z,101259.03
2022-12-03T09:44:32.678Z,101261.83
2022-12-03T09:47:19.121Z,101263.03
2022-12-03T09:50:06.335Z,101266.19
2022-12-03T09:52:54.939Z,101263.79
2022-12-03T09:55:42.578Z,101261.11
2022-12-03T09:58:34.573Z,101257.15
2022-12-03T10:01:21.532Z,101252.87
2022-12-03T10:04:08.234Z,101252.73
2022-12-03T10:06:54.788Z,101258.89
2022-12-03T10:09:41.176Z,101254.38
2022-12-03T10:12:27.976Z,101255.27
2022-12-03T10:15:15.943Z,101250.44
2022-12-03T10:18:20.136Z,101245.06
2022-12-03T10:21:13.698Z,101252.89
2022-12-03T10:24:28.991Z,101253.02
2022-12-03T10:27:25.282Z,101252.52
2022-12-03T10:30:18.425Z,101249.92
2022-12-03T10:33:18.501Z,101249.77
2022-12-03T10:36:23.304Z,101245.69
2022-12-03T10:39:12.693Z,101232.80
2022-12-03T10:42:13.507Z,101230.40
2022-12-03T10:45:14.600Z,101230.45
2022-12-03T10:48:05.157Z,101220.68
2022-12-03T10:50:53.647Z,101221.91
2022-12-03T10:53:40.109Z,101219.82
2022-12-03T10:56:26.561Z,101212.46
2022-12-03T10:59:26.292Z,101211.75
2022-12-03T11:02:22.920Z,101213.66
2022-12-03T11:05:15.467Z,101206.15
2022-12-03T11:08:02.002Z,101199.10
2022-12-03T11:10:59.095Z,101205.10
2022-12-03T11:13:54.121Z,101201.23
2022-12-03T11:16:40.493Z,101201.60
2022-12-03T11:19:36.114Z,101198.89
2022-12-03T11:22:24.495Z,101199.30
2022-12-03T11:25:37.370Z,101194.20
2022-12-03T11:28:31.423Z,101190.61
2022-12-03T11:31:43.711Z,101187.08
2022-12-03T11:34:39.260Z,101186.66
2022-12-03T11:37:25.831Z,101187.04
2022-12-03T11:40:18.904Z,101192.30
2022-12-03T11:43:23.226Z,101189.13
2022-12-03T11:46:12.300Z,101186.66
2022-12-03T11:48:59.967Z,101183.98
2022-12-03T11:51:46.833Z,101180.88
2022-12-03T11:54:33.958Z,101182.59
2022-12-03T11:57:37.944Z,101177.38
2022-12-03T12:00:25.163Z,101176.51
2022-12-03T12:03:21.460Z,101175.46
2022-12-03T12:06:08.821Z,101169.00
2022-12-03T12:08:57.131Z,101178.34
2022-12-03T12:11:44.002Z,101177.81
2022-12-03T12:14:30.374Z,101184.07
2022-12-03T12:17:30.712Z,101184.74
2022-12-03T12:20:26.761Z,101177.71
2022-12-03T12:23:23.372Z,101180.56
2022-12-03T12:26:09.774Z,101176.61
2022-12-03T12:28:56.769Z,101175.58
2022-12-03T12:31:43.246Z,101166.59
2022-12-03T12:34:29.699Z,101158.13
2022-12-03T12:37:35.645Z,101150.27
2022-12-03T12:40:27.315Z,101152.63
2022-12-03T12:43:24.857Z,101154.45
2022-12-03T12:46:46.142Z,101157.77
2022-12-03T12:49:25.148Z,101152.52
2022-12-03T12:52:14.556Z,101146.04
2022-12-03T12:55:04.857Z,101148.21
2022-12-03T12:57:52.234Z,101152.13
2022-12-03T13:00:38.739Z,101149.52
2022-12-03T13:03:28.360Z,101152.52
2022-12-03T13:06:15.389Z,101157.73
2022-12-03T13:09:01.790Z,101156.35
2022-12-03T13:12:04.206Z,101159.84
2022-12-03T13:14:52.305Z,101159.83
2022-12-03T13:17:39.071Z,101156.32
2022-12-03T13:20:25.573Z,101154.73
2022-12-03T13:23:33.312Z,101151.05
2022-12-03T13:26:38.804Z,101148.44
2022-12-03T13:29:26.960Z,101149.14
2022-12-03T13:32:16.236Z,101145.48
2022-12-03T13:35:31.946Z,101128.68
2022-12-03T13:38:18.356Z,101132.90
2022-12-03T13:41:05.104Z,101150.27
2022-12-03T13:43:51.782Z,101145.16
2022-12-03T13:46:38.195Z,101144.96
2022-12-03T13:49:25.114Z,101146.69
2022-12-03T13:52:16.879Z,101139.13
2022-12-03T13:55:03.915Z,101135.77
2022-12-03T13:57:50.253Z,101136.98
2022-12-03T14:00:37.687Z,101150.33
2022-12-03T14:03:24.357Z,101144.02
2022-12-03T14:06:10.755Z,101140.20
2022-12-03T14:08:58.051Z,101144.92
2022-12-03T14:12:03.298Z,101146.14
2022-12-03T14:14:50.086Z,101138.26
2022-12-03T14:17:36.521Z,101130.17
2022-12-03T14:20:22.936Z,101127.17
2022-12-03T14:23:09.329Z,101127.32
2022-12-03T14:25:56.232Z,101129.91
2022-12-03T14:28:43.688Z,101127.23
2022-12-03T14:31:30.415Z,101123.18
2022-12-03T14:34:17.050Z,101121.42
2022-12-03T14:37:03.675Z,101122.16
2022-12-03T14:39:50.402Z,101120.76
2022-12-03T14:42:37.140Z,101123.22
2022-12-03T14:45:25.244Z,101123.23
2022-12-03T14:48:11.821Z,101127.08
2022-12-03T14:50:58.146Z,101128.81
2022-12-03T14:53:44.964Z,101134.57
2022-12-03T14:56:31.427Z,101132.08
2022-12-03T14:59:20.691Z,101134.54
2022-12-03T15:02:11.618Z,101138.57
2022-12-03T15:04:58.558Z,101145.05
2022-12-03T15:07:45.020Z,101145.39
2022-12-03T15:10:31.856Z,101146.23
2022-12-03T15:13:18.738Z,101147.98
2022-12-03T15:16:05.685Z,101147.48
2022-12-03T15:18:52.981Z,101144.20
2022-12-03T15:21:39.640Z,101151.09
2022-12-03T15:24:26.359Z,101150.77
2022-12-03T15:27:13.207Z,101155.38
2022-12-03T15:29:59.774Z,101153.46
2022-12-03T15:32:46.694Z,101143.09
2022-12-03T15:35:33.948Z,101144.14
2022-12-03T15:38:20.875Z,101140.77
2022-12-03T15:41:28.120Z,101135.29
2022-12-03T15:44:14.955Z,101140.69
2022-12-03T15:47:01.790Z,101142.42
2022-12-03T15:49:48.922Z,101140.11
2022-12-03T15:52:35.815Z,101142.60
2022-12-03T15:55:22.663Z,101142.31
2022-12-03T15:58:09.267Z,101141.30
2022-12-03T16:00:55.776Z,101138.69
2022-12-03T16:03:42.639Z,101141.69
2022-12-03T16:06:29.242Z,101144.30
2022-12-03T16:09:15.655Z,101142.02
2022-12-03T16:12:02.097Z,101142.69
2022-12-03T16:14:48.615Z,101135.11
2022-12-03T16:17:35.060Z,101137.90
2022-12-03T16:20:23.806Z,101136.00
2022-12-03T16:23:10.398Z,101139.95
2022-12-03T16:25:57.073Z,101131.85
2022-12-03T16:28:44.367Z,101127.63
2022-12-03T16:31:31.269Z,101128.16
2022-12-03T16:34:18.365Z,101130.09
2022-12-03T16:37:08.828Z,101130.77
2022-12-03T16:39:56.011Z,101124.41
2022-12-03T16:42:43.151Z,101119.13
2022-12-03T16:45:29.355Z,101120.18
2022-12-03T16:48:16.377Z,101120.02
2022-12-03T16:51:02.628Z,101121.48
2022-12-03T16:53:49.424Z,101128.20
2022-12-03T16:56:36.142Z,101124.89
2022-12-03T16:59:22.808Z,101125.58
2022-12-03T17:02:11.042Z,101129.92
2022-12-03T17:04:57.729Z,101125.67
2022-12-03T17:07:44.658Z,101125.33
2022-12-03T17:10:31.284Z,101127.94
2022-12-03T17:13:18.160Z,101128.60
2022-12-03T17:16:05.330Z,101124.86
2022-12-03T17:19:00.977Z,101119.26
2022-12-03T17:21:47.581Z,101111.90
2022-12-03T17:24:34.104Z,101110.17
2022-12-03T17:27:23.436Z,101110.58
2022-12-03T17:30:10.928Z,101104.16
2022-12-03T17:32:57.464Z,101100.64
2022-12-03T17:35:45.607Z,101103.98
2022-12-03T17:38:37.280Z,101102.54
2022-12-03T17:41:26.623Z,101105.52
2022-12-03T17:44:17.765Z,101105.11
2022-12-03T17:47:06.381Z,101103.56
2022-12-03T17:49:53.498Z,101104.80
2022-12-03T17:52:40.295Z,101104.81
2022-12-03T17:55:36.972Z,101100.29
2022-12-03T17:58:28.682Z,101101.53
2022-12-03T18:01:15.005Z,101098.88
2022-12-03T18:04:01.821Z,101098.70
2022-12-03T18:06:48.380Z,101096.77
2022-12-03T18:09:35.144Z,101091.83
2022-12-03T18:12:21.644Z,101094.59
2022-12-03T18:15:08.937Z,101091.74
2022-12-03T18:17:55.699Z,101089.84
2022-12-03T18:20:42.110Z,101088.81
2022-12-03T18:23:29.039Z,101084.98
2022-12-03T18:26:16.059Z,101085.02
2022-12-03T18:29:02.674Z,101087.85
2022-12-03T18:31:49.287Z,101090.14
2022-12-03T18:34:35.875Z,101090.13
2022-12-03T18:37:22.508Z,101091.66
2022-12-03T18:40:21.449Z,101086.90
2022-12-03T18:43:14.840Z,101088.64
2022-12-03T18:46:01.960Z,101084.41
2022-12-03T18:48:48.971Z,101087.73
2022-12-03T18:51:35.536Z,101082.12
2022-12-03T18:54:22.104Z,101080.39
2022-12-03T18:57:09.038Z,101081.32
2022-12-03T18:59:56.053Z,101082.22
2022-12-03T19:03:02.441Z,101082.42
2022-12-03T19:05:49.750Z,101082.80
2022-12-03T19:08:36.723Z,101080.52
2022-12-03T19:11:23.137Z,101081.91
2022-12-03T19:14:11.485Z,101081.35
2022-12-03T19:16:57.868Z,101079.05
2022-12-03T19:19:44.256Z,101078.33
2022-12-03T19:22:30.851Z,101078.84
2022-12-03T19:25:17.750Z,101071.25
2022-12-03T19:28:04.789Z,101071.42
2022-12-03T19:30:58.903Z,101079.70
2022-12-03T19:33:46.394Z,101080.45
2022-12-03T19:36:35.419Z,101083.65
2022-12-03T19:39:22.303Z,101085.24
2022-12-03T19:42:08.913Z,101084.38
2022-12-03T19:44:55.665Z,101089.98
2022-12-03T19:47:42.386Z,101090.67
2022-12-03T19:50:30.634Z,101094.35
2022-12-03T19:53:17.394Z,101096.42
2022-12-03T19:56:08.685Z,101095.02
2022-12-03T19:58:55.735Z,101091.34
2022-12-03T20:01:43.397Z,101093.96
2022-12-03T20:04:33.526Z,101091.84
2022-12-03T20:07:20.099Z,101088.34
2022-12-03T20:10:07.455Z,101094.35
2022-12-03T20:12:54.080Z,101097.55
2022-12-03T20:15:40.346Z,101094.61
2022-12-03T20:18:26.867Z,101100.95
2022-12-03T20:21:14.310Z,101103.94
2022-12-03T20:24:01.024Z,101101.13
2022-12-03T20:26:47.695Z,101103.60
2022-12-03T20:29:34.101Z,101107.44
2022-12-03T20:32:21.169Z,101098.13
2022-12-03T20:35:08.379Z,101102.02
2022-12-03T20:37:54.903Z,101093.80
2022-12-03T20:40:41.689Z,101097.34
2022-12-03T20:43:28.659Z,101088.23
2022-12-03T20:46:21.716Z,101082.09
2022-12-03T20:49:08.578Z,101062.41
2022-12-03T20:51:57.067Z,101066.95
2022-12-03T20:54:46.606Z,101073.07
2022-12-03T20:57:33.135Z,101068.52
2022-12-03T21:00:23.243Z,101060.46
2022-12-03T21:03:10.025Z,101051.36
2022-12-03T21:06:01.665Z,101047.88
2022-12-03T21:08:48.321Z,101051.23
2022-12-03T21:11:36.048Z,101055.09
2022-12-03T21:14:22.680Z,101055.41
2022-12-03T21:17:09.698Z,101054.89
2022-12-03T21:19:56.919Z,101056.98
2022-12-03T21:22:43.931Z,101059.58
2022-12-03T21:25:30.411Z,101059.74
2022-12-03T21:28:17.297Z,101056.60
2022-12-03T21:31:05.935Z,101058.55
2022-12-03T21:33:55.522Z,101054.53
2022-12-03T21:36:42.336Z,101059.98
2022-12-03T21:39:29.015Z,101055.64
2022-12-03T21:42:33.287Z,101061.44
2022-12-03T21:45:25.042Z,101062.12
2022-12-03T21:48:11.507Z,101071.39
2022-12-03T21:51:03.741Z,101071.20
2022-12-03T21:53:50.872Z,101071.02
2022-12-03T21:56:37.572Z,101076.45
2022-12-03T21:59:25.886Z,101070.51
2022-12-03T22:02:12.757Z,101062.46
2022-12-03T22:05:00.060Z,101068.27
2022-12-03T22:07:47.071Z,101058.80
2022-12-03T22:10:34.785Z,101061.94
2022-12-03T22:13:21.389Z,101056.14
2022-12-03T22:16:09.929Z,101056.29
2022-12-03T22:18:56.808Z,101056.64
2022-12-03T22:21:43.659Z,101054.73
2022-12-03T22:24:30.668Z,101052.81
2022-12-03T22:27:17.237Z,101042.83
2022-12-03T22:30:04.667Z,101039.48
2022-12-03T22:32:53.237Z,101034.05
2022-12-03T22:35:40.377Z,101034.73
2022-12-03T22:38:27.017Z,101037.36
2022-12-03T22:41:14.208Z,101032.96
2022-12-03T22:44:00.967Z,101033.83
2022-12-03T22:46:47.723Z,101031.52
2022-12-03T22:49:34.536Z,101032.73
2022-12-03T22:52:21.572Z,101026.08
2022-12-03T22:55:09.083Z,101026.10
2022-12-03T22:57:55.536Z,101027.71
2022-12-03T23:00:42.263Z,101029.32
2022-12-03T23:03:29.031Z,101026.69
2022-12-03T23:06:15.404Z,101021.94
2022-12-03T23:09:02.503Z,101020.54
2022-12-03T23:11:49.070Z,101010.33
2022-12-03T23:14:36.903Z,101013.98
2022-12-03T23:17:26.635Z,101012.21
2022-12-03T23:20:13.899Z,101012.39
2022-12-03T23:23:00.346Z,101018.88
2022-12-03T23:26:00.279Z,101014.14
2022-12-03T23:28:47.397Z,101016.62
2022-12-03T23:31:34.013Z,101014.52
2022-12-03T23:34:20.938Z,101008.71
2022-12-03T23:37:10.291Z,100999.90
2022-12-03T23:39:57.110Z,101001.80
2022-12-03T23:42:43.702Z,100998.30
2022-12-03T23:45:33.413Z,100993.76
2022-12-03T23:48:19.845Z,100982.21
2022-12-03T23:51:10.775Z,100980.30
2022-12-03T23:53:57.401Z,100973.45
2022-12-03T23:56:44.879Z,100975.03
2022-12-03T23:59:31.681Z,100989.42
